Time;durP1;ratioP1;P1;durP2;ratioP2;P2;SDS_P1;SDS_P2;PMS_P1;PMS_P2;Temp;Humidity;BMP_temperature;BMP_pressure;BME280_temperature;BME280_humidity;BME280_pressure;Samples;Min_cycle;Max_cycle;Signal;HPM_P1;HPM_P2
2023/02/15 00:02:00;;;;;;;30.85;17.17;;;;;;;-3.27;100.00;98559.78;5062112;28;20032;-59
2023/02/15 00:04:45;;;;;;;31.38;17.58;;;;;;;-3.26;100.00;98560.63;5059886;28;20037;-59
2023/02/15 00:07:16;;;;;;;32.83;16.60;;;;;;;-3.14;100.00;98558.69;5061105;28;20041;-59
2023/02/15 00:09:45;;;;;;;29.90;16.13;;;;;;;-3.16;100.00;98555.34;5057373;28;20068;-56
2023/02/15 00:12:11;;;;;;;32.47;16.27;;;;;;;-3.41;100.00;98552.19;5051009;28;20295;-59
2023/02/15 00:14:38;;;;;;;25.80;15.27;;;;;;;-3.54;100.00;98541.84;5057032;28;20113;-58
2023/02/15 00:17:04;;;;;;;30.10;15.30;;;;;;;-3.59;100.00;98542.22;5056468;28;20227;-57
2023/02/15 00:19:31;;;;;;;28.90;15.98;;;;;;;-3.68;100.00;98549.13;5058717;28;20032;-56
2023/02/15 00:21:57;;;;;;;31.42;16.80;;;;;;;-3.51;100.00;98546.84;5056678;28;20654;-58
2023/02/15 00:24:24;;;;;;;31.70;15.13;;;;;;;-3.48;100.00;98546.59;5054712;28;20032;-57
2023/02/15 00:26:51;;;;;;;28.48;14.77;;;;;;;-3.47;100.00;98540.31;5055874;28;20043;-57
2023/02/15 00:29:19;;;;;;;32.45;18.00;;;;;;;-3.68;100.00;98550.97;5053121;28;20049;-58
2023/02/15 00:31:46;;;;;;;32.38;15.48;;;;;;;-3.67;100.00;98548.19;5057653;28;20258;-56
2023/02/15 00:34:25;;;;;;;29.63;16.38;;;;;;;-3.51;100.00;98540.75;5043440;28;20467;-57
2023/02/15 00:36:52;;;;;;;39.28;18.38;;;;;;;-3.55;100.00;98545.44;5058215;28;20095;-59
2023/02/15 00:39:19;;;;;;;35.40;17.55;;;;;;;-3.64;100.00;98551.53;5055602;28;20040;-58
2023/02/15 00:41:46;;;;;;;38.33;18.17;;;;;;;-3.56;100.00;98549.06;5056042;28;20304;-58
2023/02/15 00:44:13;;;;;;;37.17;18.08;;;;;;;-3.74;100.00;98547.03;5059179;28;20311;-58
2023/02/15 00:46:40;;;;;;;37.13;18.10;;;;;;;-3.77;100.00;98552.56;5061341;28;20089;-58
2023/02/15 00:49:08;;;;;;;31.42;16.08;;;;;;;-3.67;100.00;98550.84;5054630;28;20036;-57
2023/02/15 00:51:35;;;;;;;38.65;18.52;;;;;;;-3.67;100.00;98557.94;5059199;28;20047;-58
2023/02/15 00:54:01;;;;;;;32.15;17.25;;;;;;;-3.62;100.00;98555.72;5055840;28;20515;-54
2023/02/15 00:56:28;;;;;;;32.58;16.52;;;;;;;-3.60;100.00;98545.84;5057935;28;20051;-58
2023/02/15 00:58:55;;;;;;;34.65;17.23;;;;;;;-3.58;100.00;98540.44;5057308;28;20117;-55
2023/02/15 01:01:23;;;;;;;30.98;15.88;;;;;;;-3.60;100.00;98539.72;5053423;28;20037;-56
2023/02/15 01:03:50;;;;;;;31.65;16.55;;;;;;;-3.87;100.00;98541.09;5047271;28;20041;-58
2023/02/15 01:06:17;;;;;;;33.10;15.88;;;;;;;-3.81;100.00;98540.56;5048622;28;20037;-58
2023/02/15 01:08:45;;;;;;;33.70;17.05;;;;;;;-3.91;100.00;98543.16;5056362;28;20496;-56
2023/02/15 01:11:24;;;;;;;30.15;15.60;;;;;;;-3.95;100.00;98552.31;5053258;28;20048;-59
2023/02/15 01:13:53;;;;;;;37.00;17.85;;;;;;;-3.94;100.00;98544.25;5056136;28;20036;-56
2023/02/15 01:16:21;;;;;;;34.25;17.08;;;;;;;-3.80;100.00;98548.38;5057565;28;20300;-56
2023/02/15 01:18:48;;;;;;;34.75;18.38;;;;;;;-3.70;100.00;98542.31;5065126;28;20110;-58
2023/02/15 01:21:17;;;;;;;35.22;18.75;;;;;;;-3.85;100.00;98549.75;5054132;28;20055;-54
2023/02/15 01:23:44;;;;;;;35.95;17.52;;;;;;;-3.92;100.00;98542.34;5059974;28;20086;-56
2023/02/15 01:26:12;;;;;;;30.50;15.95;;;;;;;-3.82;100.00;98539.75;5058957;28;20072;-56
2023/02/15 01:28:39;;;;;;;38.45;18.02;;;;;;;-3.67;100.00;98540.25;5061018;28;20471;-54
2023/02/15 01:31:08;;;;;;;31.75;16.83;;;;;;;-3.66;100.00;98546.38;5058277;28;20143;-57
2023/02/15 01:33:37;;;;;;;30.92;16.25;;;;;;;-3.69;100.00;98544.00;5060383;28;20423;-56
2023/02/15 01:36:04;;;;;;;34.20;16.65;;;;;;;-3.66;100.00;98531.34;5055998;28;20102;-56
2023/02/15 01:38:31;;;;;;;34.20;17.10;;;;;;;-3.63;100.00;98532.88;5053454;28;20110;-57
2023/02/15 01:43:46;;;;;;;34.00;15.73;;;;;;;-3.19;100.00;98529.13;5060007;28;20043;-56
2023/02/15 01:46:15;;;;;;;33.28;17.20;;;;;;;-3.21;100.00;98533.75;5057470;28;20462;-58
2023/02/15 01:48:49;;;;;;;34.42;18.02;;;;;;;-3.37;100.00;98528.91;5067182;28;20128;-56
2023/02/15 01:51:22;;;;;;;30.48;15.82;;;;;;;-3.51;100.00;98530.97;5058811;28;20037;-56
2023/02/15 01:53:55;;;;;;;32.30;15.45;;;;;;;-3.48;100.00;98530.72;5058731;28;20090;-58
2023/02/15 01:56:27;;;;;;;28.38;16.35;;;;;;;-3.48;100.00;98535.16;5062918;28;20040;-57
2023/02/15 01:58:55;;;;;;;;;;;;;;;-3.45;100.00;98535.75;5061123;28;20043;-58
2023/02/15 02:01:24;;;;;;;35.08;16.52;;;;;;;-2.95;100.00;98534.06;5059530;28;19964;-58
2023/02/15 02:04:15;;;;;;;29.23;16.77;;;;;;;-2.80;100.00;98523.91;5055647;28;20051;-58
2023/02/15 02:06:41;;;;;;;31.63;16.23;;;;;;;-2.72;100.00;98520.59;5057532;28;20036;-57
2023/02/15 02:09:08;;;;;;;31.30;16.52;;;;;;;-2.69;100.00;98514.97;5061250;28;20045;-58
2023/02/15 02:11:35;;;;;;;33.92;16.50;;;;;;;-2.66;100.00;98517.38;5057595;28;20477;-58
2023/02/15 02:14:03;;;;;;;35.10;17.20;;;;;;;-2.77;100.00;98517.47;5057811;28;20033;-56
2023/02/15 02:17:03;;;;;;;37.67;17.25;;;;;;;-2.53;100.00;98513.59;5048806;28;20033;-58
2023/02/15 02:19:46;;;;;;;40.92;17.70;;;;;;;-2.34;100.00;98515.41;5057875;28;20036;-58
2023/02/15 02:22:35;;;;;;;59.47;19.17;;;;;;;-2.24;100.00;98518.88;5056587;28;20045;-56
2023/02/15 02:25:40;;;;;;;78.18;20.25;;;;;;;-2.46;100.00;98516.53;5060320;28;20036;-57
2023/02/15 02:28:31;;;;;;;57.78;18.58;;;;;;;-2.58;100.00;98518.50;5054898;28;20094;-56
2023/02/15 02:31:19;;;;;;;56.42;20.58;;;;;;;-2.42;100.00;98516.13;5053398;28;20044;-57
2023/02/15 02:33:57;;;;;;;52.63;18.70;;;;;;;-2.58;100.00;98519.31;5051858;28;20041;-58
2023/02/15 02:36:47;;;;;;;49.92;19.95;;;;;;;-2.54;100.00;98518.06;5053985;28;20048;-57
2023/02/15 02:39:37;;;;;;;68.80;20.27;;;;;;;-2.73;100.00;98521.53;5056042;28;20405;-58
2023/02/15 02:42:17;;;;;;;63.10;19.52;;;;;;;-2.80;100.00;98521.25;5055971;28;20515;-57
2023/02/15 02:44:49;;;;;;;69.50;19.42;;;;;;;-2.76;100.00;98517.34;5053290;28;20047;-58
2023/02/15 02:47:24;;;;;;;68.43;19.77;;;;;;;-2.88;100.00;98518.44;5055889;28;20036;-58
2023/02/15 02:49:59;;;;;;;76.28;21.42;;;;;;;-2.80;100.00;98521.25;5064926;28;20412;-57
2023/02/15 02:52:46;;;;;;;43.15;19.40;;;;;;;-2.83;100.00;98521.56;5059516;28;20123;-56
2023/02/15 02:55:21;;;;;;;80.30;23.00;;;;;;;-2.84;100.00;98516.38;5059968;28;20048;-54
2023/02/15 02:58:08;;;;;;;60.08;21.13;;;;;;;-2.90;100.00;98517.75;5056155;28;20076;-58
2023/02/15 03:00:39;;;;;;;76.15;21.88;;;;;;;-2.75;100.00;98519.06;5053816;28;20075;-57
2023/02/15 03:03:12;;;;;;;36.13;19.33;;;;;;;-2.82;100.00;98511.75;5061575;28;20518;-59
2023/02/15 03:05:43;;;;;;;66.38;22.38;;;;;;;-3.10;100.00;98509.75;5062085;28;20116;-59
2023/02/15 03:08:21;;;;;;;55.88;17.83;;;;;;;-2.94;100.00;98519.00;5076471;28;20052;-57
2023/02/15 03:10:55;;;;;;;48.45;18.95;;;;;;;-3.04;100.00;98517.19;5059319;28;20506;-57
2023/02/15 03:13:23;;;;;;;78.80;20.45;;;;;;;-2.98;100.00;98507.00;5054892;28;20055;-55
2023/02/15 03:18:57;;;;;;;41.72;17.80;;;;;;;-2.78;100.00;98506.06;5058976;28;20045;-59
2023/02/15 03:21:31;;;;;;;49.65;20.25;;;;;;;-2.79;100.00;98512.34;5060106;28;20039;-58
2023/02/15 03:24:07;;;;;;;42.53;20.20;;;;;;;-2.87;100.00;98510.38;5062450;28;20045;-59
2023/02/15 03:26:35;;;;;;;45.13;18.98;;;;;;;-3.09;100.00;98513.25;5061154;28;20036;-58
2023/02/15 03:29:05;;;;;;;40.53;17.20;;;;;;;-3.25;100.00;98505.84;5059907;28;20047;-58
2023/02/15 03:31:37;;;;;;;42.80;18.17;;;;;;;-3.41;100.00;98501.88;5051641;28;20044;-59
2023/02/15 03:34:09;;;;;;;44.35;19.10;;;;;;;-3.48;100.00;98493.63;5055830;28;20076;-58
2023/02/15 03:36:43;;;;;;;;;;;;;;;-3.46;100.00;98496.16;5056520;28;20299;-57
2023/02/15 03:39:33;;;;;;;34.50;17.10;;;;;;;-3.23;100.00;98499.44;5048715;28;19999;-58
2023/02/15 03:42:13;;;;;;;42.42;19.23;;;;;;;-3.31;100.00;98508.03;5053080;28;20044;-57
2023/02/15 03:45:02;;;;;;;46.58;19.98;;;;;;;-3.48;100.00;98506.88;5054546;28;20128;-59
2023/02/15 03:47:33;;;;;;;33.75;17.90;;;;;;;-3.38;100.00;98506.91;5052947;28;20143;-59
2023/02/15 03:51:33;;;;;;;43.05;18.88;;;;;;;-3.45;100.00;98516.34;5059043;28;20032;-59
2023/02/15 03:52:53;;;;;;;44.88;18.98;;;;;;;-3.45;100.00;98509.25;5055101;28;20064;-57
2023/02/15 03:55:19;;;;;;;41.28;18.52;;;;;;;-3.29;100.00;98518.50;5058275;28;20044;-58
2023/02/15 04:03:36;;;;;;;41.92;18.90;;;;;;;-3.52;100.00;98502.81;5053854;28;20595;-58
2023/02/15 04:06:03;;;;;;;39.13;19.57;;;;;;;-3.64;100.00;98504.72;5057563;28;20119;-57
2023/02/15 04:11:14;;;;;;;37.92;19.13;;;;;;;-3.75;100.00;98492.41;5057658;28;20029;-59
2023/02/15 04:13:41;;;;;;;42.75;18.17;;;;;;;-3.83;100.00;98490.41;5054821;28;20048;-59
2023/02/15 04:16:08;;;;;;;31.40;16.65;;;;;;;-3.87;100.00;98489.00;5058157;28;20045;-56
2023/02/15 04:27:02;;;;;;;44.45;17.30;;;;;;;-3.86;100.00;98484.56;5053970;28;20123;-59
2023/02/15 04:29:28;;;;;;;42.13;17.48;;;;;;;-3.72;100.00;98478.06;5057580;28;20045;-57
2023/02/15 04:31:57;;;;;;;40.10;18.73;;;;;;;-3.75;100.00;98475.69;5055233;28;20040;-59
2023/02/15 04:34:24;;;;;;;42.30;16.83;;;;;;;-3.82;100.00;98476.25;5054273;28;20202;-58
2023/02/15 04:36:50;;;;;;;37.90;17.48;;;;;;;-3.81;100.00;98474.41;5056978;28;20074;-58
2023/02/15 04:39:18;;;;;;;73.00;18.48;;;;;;;-3.71;100.00;98477.09;5056694;28;20047;-56
2023/02/15 04:41:45;;;;;;;58.95;16.00;;;;;;;-3.70;100.00;98478.78;5057456;28;20087;-58
2023/02/15 04:44:12;;;;;;;39.75;18.20;;;;;;;-3.93;100.00;98478.97;5056081;28;20531;-58
2023/02/15 04:46:38;;;;;;;42.97;16.77;;;;;;;-4.04;100.00;98485.16;5056802;28;20051;-58
2023/02/15 04:49:05;;;;;;;48.17;18.05;;;;;;;-4.06;100.00;98489.72;5055250;28;20055;-59
2023/02/15 04:51:31;;;;;;;69.15;18.70;;;;;;;-4.04;100.00;98487.81;5053990;28;20076;-57
2023/02/15 04:53:58;;;;;;;85.10;17.02;;;;;;;-3.81;100.00;98483.19;5055454;28;20045;-58
2023/02/15 04:56:24;;;;;;;107.38;19.63;;;;;;;-3.99;100.00;98477.66;5059758;28;20049;-59
2023/02/15 04:58:51;;;;;;;99.60;16.08;;;;;;;-4.11;100.00;98476.91;5055984;28;20050;-59
2023/02/15 05:01:18;;;;;;;87.57;18.08;;;;;;;-4.03;100.00;98486.00;5056432;28;20157;-59
2023/02/15 05:03:45;;;;;;;104.13;18.05;;;;;;;-4.30;100.00;98477.63;5053901;28;20093;-57
2023/02/15 05:06:11;;;;;;;86.55;16.92;;;;;;;-4.35;100.00;98477.19;5057975;28;20047;-58
2023/02/15 05:08:38;;;;;;;65.30;16.35;;;;;;;-4.34;100.00;98477.06;5057887;28;20344;-58
2023/02/15 05:11:04;;;;;;;90.28;16.88;;;;;;;-4.41;100.00;98481.19;5053369;28;20454;-57
2023/02/15 05:13:31;;;;;;;76.15;17.13;;;;;;;-4.35;100.00;98478.00;5055874;28;20118;-58
2023/02/15 05:15:57;;;;;;;57.95;16.48;;;;;;;-4.37;100.00;98479.97;5057064;28;20041;-59
2023/02/15 05:18:24;;;;;;;76.30;17.52;;;;;;;-4.37;100.00;98476.47;5060263;28;20067;-58
2023/02/15 05:20:51;;;;;;;75.20;16.30;;;;;;;-4.42;100.00;98481.31;5060905;28;20044;-57
2023/02/15 05:23:17;;;;;;;73.57;18.30;;;;;;;-4.53;100.00;98482.22;5055442;28;20539;-58
2023/02/15 05:28:37;;;;;;;46.95;17.00;;;;;;;-4.73;100.00;98479.41;5058254;28;20115;-58
2023/02/15 05:31:04;;;;;;;55.13;16.58;;;;;;;-4.83;100.00;98482.81;5057149;28;20360;-57
2023/02/15 05:33:32;;;;;;;41.75;16.35;;;;;;;-4.62;100.00;98483.78;5059842;28;20231;-57
2023/02/15 05:35:58;;;;;;;61.15;21.27;;;;;;;-4.93;100.00;98479.25;5061270;28;20044;-58
2023/02/15 05:38:27;;;;;;;46.08;18.02;;;;;;;-4.87;100.00;98485.84;5059333;28;20589;-58
2023/02/15 05:40:54;;;;;;;67.70;21.83;;;;;;;-4.96;100.00;98482.13;5058151;28;20075;-55
2023/02/15 05:43:21;;;;;;;39.65;19.10;;;;;;;-4.72;100.00;98478.47;5059423;28;20041;-54
2023/02/15 05:45:49;;;;;;;39.60;17.95;;;;;;;-4.76;100.00;98482.31;5056756;28;20426;-54
2023/02/15 05:48:16;;;;;;;39.58;17.30;;;;;;;-4.78;100.00;98484.22;5050065;28;20072;-58
2023/02/15 05:50:43;;;;;;;68.43;20.85;;;;;;;-4.77;100.00;98485.91;5059577;28;20043;-58
2023/02/15 05:53:10;;;;;;;47.78;19.67;;;;;;;-4.86;100.00;98485.69;5058286;28;20060;-58
2023/02/15 05:55:40;;;;;;;46.67;19.60;;;;;;;-4.88;100.00;98485.00;5064750;28;20596;-55
2023/02/15 05:58:07;;;;;;;42.45;18.42;;;;;;;-4.77;100.00;98491.19;5060732;28;20454;-59
2023/02/15 06:00:34;;;;;;;56.75;20.63;;;;;;;-4.89;100.00;98490.41;5061520;28;20040;-56
2023/02/15 06:03:03;;;;;;;45.92;19.00;;;;;;;-4.94;100.00;98493.41;5061254;28;20117;-58
2023/02/15 06:05:30;;;;;;;58.22;19.95;;;;;;;-4.64;100.00;98493.66;5061506;28;20508;-57
2023/02/15 06:07:56;;;;;;;82.68;19.95;;;;;;;-4.89;100.00;98499.19;5064414;28;20029;-58
2023/02/15 06:10:22;;;;;;;53.58;20.00;;;;;;;-5.05;100.00;98490.81;5062749;28;20050;-56
2023/02/15 06:12:49;;;;;;;58.72;19.60;;;;;;;-5.17;100.00;98490.84;5061467;28;20066;-58
2023/02/15 06:15:15;;;;;;;48.10;20.15;;;;;;;-5.09;100.00;98508.69;5061337;28;20119;-57
2023/02/15 06:17:42;;;;;;;38.05;18.60;;;;;;;-5.11;100.00;98500.06;5061732;28;20045;-57
2023/02/15 06:20:09;;;;;;;45.33;16.58;;;;;;;-5.10;100.00;98494.66;5059473;28;20055;-59
2023/02/15 06:22:36;;;;;;;38.88;17.70;;;;;;;-5.09;100.00;98491.06;5062537;28;20044;-58
2023/02/15 06:25:03;;;;;;;39.35;20.58;;;;;;;-5.33;100.00;98488.59;5061304;28;20032;-54
2023/02/15 06:27:29;;;;;;;41.10;18.20;;;;;;;-5.26;100.00;98491.56;5056812;28;20112;-56
2023/02/15 06:29:56;;;;;;;35.22;17.95;;;;;;;-5.20;100.00;98496.34;5061706;28;20041;-56
2023/02/15 06:32:23;;;;;;;40.45;23.50;;;;;;;-4.98;100.00;98494.63;5058396;28;20044;-58
2023/02/15 06:34:49;;;;;;;33.83;18.17;;;;;;;-5.46;100.00;98498.44;5061464;28;20040;-55
2023/02/15 06:37:16;;;;;;;39.67;22.27;;;;;;;-5.61;100.00;98493.41;5058312;28;20105;-57
2023/02/15 06:39:43;;;;;;;34.92;18.10;;;;;;;-5.64;100.00;98491.03;5055431;28;20044;-58
2023/02/15 06:42:10;;;;;;;26.77;15.35;;;;;;;-5.64;100.00;98491.84;5067064;28;20714;-57
2023/02/15 06:44:36;;;;;;;25.75;15.20;;;;;;;-5.54;100.00;98494.59;5058883;28;20136;-55
2023/02/15 06:47:03;;;;;;;27.30;14.98;;;;;;;-5.62;100.00;98503.13;5061549;28;20033;-57
2023/02/15 06:49:29;;;;;;;29.98;15.35;;;;;;;-5.63;100.00;98497.97;5060444;28;20036;-57
2023/02/15 06:51:56;;;;;;;38.42;18.95;;;;;;;-5.64;100.00;98507.69;5059459;28;20064;-56
2023/02/15 06:54:22;;;;;;;55.30;28.35;;;;;;;-5.49;100.00;98502.19;5061182;28;20599;-58
2023/02/15 06:56:49;;;;;;;76.05;39.72;;;;;;;-5.32;100.00;98500.00;5060457;28;20040;-56
2023/02/15 06:59:15;;;;;;;53.55;27.50;;;;;;;-4.92;100.00;98499.41;5062768;28;20430;-57
2023/02/15 07:01:42;;;;;;;34.05;19.70;;;;;;;-4.81;100.00;98500.31;5061647;28;20083;-56
2023/02/15 07:04:09;;;;;;;33.28;17.83;;;;;;;-5.05;100.00;98501.38;5061604;28;20404;-55
2023/02/15 07:06:35;;;;;;;32.42;15.88;;;;;;;-5.25;100.00;98495.88;5061240;28;20075;-58
2023/02/15 07:09:02;;;;;;;25.10;15.43;;;;;;;-5.28;100.00;98501.41;5058677;28;20040;-56
2023/02/15 07:14:14;;;;;;;25.33;14.48;;;;;;;-5.20;100.00;98501.63;5055151;28;20498;-55
2023/02/15 07:16:40;;;;;;;24.58;13.70;;;;;;;-5.24;100.00;98508.13;5055671;28;20044;-56
2023/02/15 07:19:07;;;;;;;29.40;15.90;;;;;;;-5.26;100.00;98510.91;5056054;28;20032;-56
2023/02/15 07:21:34;;;;;;;34.47;18.30;;;;;;;-5.19;100.00;98508.63;5056696;28;20078;-58
2023/02/15 07:24:02;;;;;;;32.33;16.00;;;;;;;-5.12;100.00;98508.97;5059178;28;20495;-56
2023/02/15 07:26:28;;;;;;;25.83;15.82;;;;;;;-4.96;100.00;98506.75;5057645;28;20127;-56
2023/02/15 07:28:55;;;;;;;27.48;15.98;;;;;;;-4.54;100.00;98515.72;5062626;28;20051;-58
2023/02/15 07:31:21;;;;;;;27.92;15.93;;;;;;;-4.49;100.00;98513.53;5060127;28;20123;-58
2023/02/15 07:33:48;;;;;;;31.67;16.10;;;;;;;-4.44;100.00;98515.81;5055816;28;20088;-56
2023/02/15 07:36:14;;;;;;;29.15;14.63;;;;;;;-4.40;100.00;98505.81;5057478;28;20052;-56
2023/02/15 07:38:41;;;;;;;26.70;14.13;;;;;;;-4.30;100.00;98509.38;5060197;28;20044;-58
2023/02/15 07:41:10;;;;;;;29.40;14.50;;;;;;;-4.28;100.00;98518.00;5059739;28;20123;-58
2023/02/15 07:43:40;;;;;;;28.00;14.52;;;;;;;-4.09;100.00;98522.59;5059777;28;20105;-58
2023/02/15 07:46:11;;;;;;;29.63;16.90;;;;;;;-4.02;100.00;98522.91;5057014;28;20037;-57
2023/02/15 07:48:39;;;;;;;28.58;14.02;;;;;;;-4.13;100.00;98520.34;5062874;28;20029;-56
2023/02/15 07:51:07;;;;;;;31.30;14.68;;;;;;;-4.11;100.00;98516.59;5061332;28;20626;-59
2023/02/15 07:53:35;;;;;;;40.92;15.57;;;;;;;-4.14;100.00;98521.28;5060211;28;20090;-58
2023/02/15 07:56:09;;;;;;;32.53;15.52;;;;;;;-4.14;100.00;98519.50;5061253;28;20559;-57
2023/02/15 07:58:51;;;;;;;28.27;14.43;;;;;;;-3.87;100.00;98519.94;5062458;28;20063;-57
2023/02/15 08:01:25;;;;;;;29.38;14.88;;;;;;;-4.02;100.00;98522.91;5058402;28;20032;-60
2023/02/15 08:03:54;;;;;;;29.00;16.10;;;;;;;-4.19;100.00;98517.25;5056024;28;20425;-57
2023/02/15 08:06:23;;;;;;;29.52;15.25;;;;;;;-4.35;100.00;98520.31;5057114;28;20491;-59
2023/02/15 08:08:49;;;;;;;31.48;14.05;;;;;;;-4.15;100.00;98523.13;5058398;28;20459;-58
2023/02/15 08:11:32;;;;;;;35.58;17.35;;;;;;;-4.12;100.00;98519.38;5062673;28;20572;-59
2023/02/15 08:14:04;;;;;;;30.60;15.00;;;;;;;-3.88;100.00;98521.72;5056807;28;20601;-60
2023/02/15 08:16:40;;;;;;;30.50;14.77;;;;;;;-3.85;100.00;98513.53;5060826;28;20102;-56
2023/02/15 08:19:10;;;;;;;30.45;16.15;;;;;;;-3.78;100.00;98500.63;5063149;28;20126;-57
2023/02/15 08:21:39;;;;;;;34.50;19.27;;;;;;;-3.63;100.00;98510.84;5056961;28;20044;-59
2023/02/15 08:24:07;;;;;;;32.17;17.48;;;;;;;-3.44;100.00;98504.78;5058245;28;20060;-58
2023/02/15 08:26:34;;;;;;;32.80;18.17;;;;;;;-3.48;100.00;98506.88;5058065;28;20511;-57
2023/02/15 08:29:02;;;;;;;35.53;18.10;;;;;;;-3.32;100.00;98498.41;5059164;28;20232;-57
2023/02/15 08:31:28;;;;;;;31.10;17.65;;;;;;;-3.34;100.00;98497.72;5062562;28;20044;-57
2023/02/15 08:33:56;;;;;;;34.17;16.85;;;;;;;-3.34;100.00;98494.22;5057233;28;20500;-57
2023/02/15 08:36:26;;;;;;;28.67;15.65;;;;;;;-3.20;100.00;98493.88;5057103;28;20476;-58
2023/02/15 08:38:53;;;;;;;30.77;17.42;;;;;;;-3.06;100.00;98489.16;5056923;28;20072;-57
2023/02/15 08:41:44;;;;;;;30.30;17.67;;;;;;;-3.09;100.00;98490.25;5059383;28;20067;-59
2023/02/15 08:44:11;;;;;;;29.83;16.57;;;;;;;-3.16;100.00;98491.78;5059072;28;20575;-58
2023/02/15 08:46:41;;;;;;;25.58;15.70;;;;;;;-3.17;100.00;98488.28;5062434;28;20068;-58
2023/02/15 08:49:08;;;;;;;28.52;16.15;;;;;;;-3.12;100.00;98490.53;5058880;28;20135;-57
2023/02/15 08:51:37;;;;;;;21.60;13.07;;;;;;;-2.93;100.00;98495.03;5059552;28;20113;-56
2023/02/15 08:54:06;;;;;;;25.80;15.15;;;;;;;-2.77;100.00;98490.97;5057280;28;20044;-57
2023/02/15 08:56:36;;;;;;;26.85;15.30;;;;;;;-2.70;100.00;98497.41;5059572;28;20461;-57
2023/02/15 08:59:03;;;;;;;25.55;14.77;;;;;;;-2.54;100.00;98490.72;5054865;28;20045;-56
2023/02/15 09:01:32;;;;;;;24.38;14.55;;;;;;;-2.61;100.00;98474.53;5059490;28;20520;-58
2023/02/15 09:04:05;;;;;;;28.02;15.43;;;;;;;-2.43;100.00;98487.09;5055403;28;20345;-58
2023/02/15 09:06:31;;;;;;;27.20;14.45;;;;;;;-2.43;100.00;98482.59;5057278;28;20040;-59
2023/02/15 09:08:58;;;;;;;25.38;14.73;;;;;;;-2.38;100.00;98483.03;5057353;28;20275;-58
2023/02/15 09:11:27;;;;;;;22.45;13.90;;;;;;;-2.31;100.00;98479.81;5051336;28;20065;-58
2023/02/15 09:13:55;;;;;;;23.85;13.15;;;;;;;-2.37;100.00;98478.53;5058592;28;20052;-59
2023/02/15 09:16:23;;;;;;;22.95;14.05;;;;;;;-2.32;100.00;98476.31;5054594;28;20106;-59
2023/02/15 09:18:51;;;;;;;21.70;12.82;;;;;;;-2.15;100.00;98471.25;5052875;28;20099;-59
2023/02/15 09:21:20;;;;;;;22.92;13.68;;;;;;;-2.07;100.00;98476.69;5056040;28;20063;-55
2023/02/15 09:23:49;;;;;;;22.90;12.95;;;;;;;-2.08;100.00;98472.34;5057506;28;20124;-59
2023/02/15 09:26:19;;;;;;;21.20;13.43;;;;;;;-2.12;100.00;98463.84;5058840;28;20065;-55
2023/02/15 09:28:48;;;;;;;25.35;14.57;;;;;;;-2.17;100.00;98462.59;5057512;28;20475;-58
2023/02/15 09:31:17;;;;;;;32.92;15.18;;;;;;;-2.22;100.00;98466.53;5056414;28;20127;-56
2023/02/15 09:33:45;;;;;;;26.88;15.52;;;;;;;-2.07;100.00;98467.91;5058751;28;20087;-58
2023/02/15 09:36:25;;;;;;;25.50;15.48;;;;;;;-2.00;100.00;98461.84;5056147;28;20124;-58
2023/02/15 09:38:56;;;;;;;25.58;14.77;;;;;;;-1.86;100.00;98457.91;5062698;28;20248;-57
2023/02/15 09:41:47;;;;;;;23.67;14.52;;;;;;;-1.68;100.00;98453.63;5062399;28;20317;-58
2023/02/15 09:44:33;;;;;;;21.95;13.68;;;;;;;-1.62;100.00;98459.19;5064416;28;20156;-57
2023/02/15 09:47:37;;;;;;;21.92;13.68;;;;;;;-1.51;100.00;98449.38;5060332;28;20048;-57
2023/02/15 09:50:34;;;;;;;21.90;14.20;;;;;;;-1.40;100.00;98449.16;5060800;28;20485;-53
2023/02/15 09:53:29;;;;;;;24.17;13.98;;;;;;;-1.31;100.00;98455.41;5056893;28;20399;-58
2023/02/15 09:56:17;;;;;;;19.50;13.35;;;;;;;-1.19;100.00;98443.59;5056695;28;20040;-57
2023/02/15 09:59:06;;;;;;;23.38;13.38;;;;;;;-1.05;100.00;98444.06;5064208;28;20413;-56
2023/02/15 10:01:51;;;;;;;20.63;13.02;;;;;;;-0.90;100.00;98440.88;5062294;28;20076;-58
2023/02/15 10:04:43;;;;;;;21.35;13.02;;;;;;;-0.75;100.00;98438.50;5062388;28;20048;-58
2023/02/15 10:07:12;;;;;;;19.05;12.65;;;;;;;-0.66;100.00;98437.63;5062951;28;20087;-59
2023/02/15 10:09:44;;;;;;;20.88;12.73;;;;;;;-0.65;100.00;98447.25;5060322;28;20036;-58
2023/02/15 10:12:30;;;;;;;21.80;13.30;;;;;;;-0.54;100.00;98444.38;5060281;28;20428;-57
2023/02/15 10:15:24;;;;;;;19.70;11.55;;;;;;;-0.31;100.00;98451.00;5059536;28;20072;-57
2023/02/15 10:18:11;;;;;;;20.38;12.57;;;;;;;-0.22;100.00;98438.59;5059438;28;20098;-59
2023/02/15 10:20:55;;;;;;;20.58;13.45;;;;;;;-0.12;100.00;98444.66;5056549;28;20049;-59
2023/02/15 10:23:44;;;;;;;21.02;13.57;;;;;;;-0.01;100.00;98440.91;5058236;28;20128;-58
2023/02/15 10:26:16;;;;;;;22.25;13.00;;;;;;;0.09;100.00;98444.31;5056129;28;20631;-58
2023/02/15 10:28:46;;;;;;;22.48;13.43;;;;;;;0.13;100.00;98436.81;5059187;28;20128;-58
2023/02/15 10:31:26;;;;;;;21.40;12.88;;;;;;;0.18;100.00;98437.16;5056715;28;20047;-59
2023/02/15 10:34:28;;;;;;;22.58;13.63;;;;;;;0.34;100.00;98431.06;5058009;28;20262;-56
2023/02/15 10:37:13;;;;;;;20.15;12.75;;;;;;;0.48;100.00;98428.81;5049342;28;20069;-59
2023/02/15 10:40:07;;;;;;;20.27;13.30;;;;;;;0.59;100.00;98423.19;5057733;28;20040;-58
2023/02/15 10:42:58;;;;;;;19.20;12.77;;;;;;;0.72;100.00;98427.22;5063889;28;20048;-56
2023/02/15 10:45:46;;;;;;;17.95;12.25;;;;;;;0.80;100.00;98424.59;5059064;28;20044;-56
2023/02/15 10:48:33;;;;;;;22.08;13.20;;;;;;;0.81;100.00;98417.44;5059997;28;20128;-55
2023/02/15 10:51:07;;;;;;;20.75;12.65;;;;;;;0.95;100.00;98415.97;5058920;28;20200;-57
2023/02/15 10:53:55;;;;;;;20.83;13.07;;;;;;;1.02;100.00;98414.28;5061571;28;20423;-57
2023/02/15 10:56:51;;;;;;;19.48;13.45;;;;;;;1.22;100.00;98417.47;5061712;28;20575;-55
2023/02/15 10:59:36;;;;;;;19.20;12.60;;;;;;;1.30;100.00;98414.81;5059604;28;20197;-57
2023/02/15 11:02:29;;;;;;;21.13;13.50;;;;;;;1.49;100.00;98411.97;5053557;28;20512;-57
2023/02/15 11:05:08;;;;;;;21.38;13.38;;;;;;;1.61;100.00;98410.63;5062660;28;20252;-56
2023/02/15 11:07:40;;;;;;;20.17;13.13;;;;;;;1.70;100.00;98411.47;5059367;28;20049;-57
2023/02/15 11:10:18;;;;;;;20.08;13.00;;;;;;;1.79;100.00;98402.44;5060794;28;20051;-59
2023/02/15 11:12:47;;;;;;;20.05;13.55;;;;;;;1.92;100.00;98401.09;5057357;28;20047;-59
2023/02/15 11:15:21;;;;;;;20.20;12.48;;;;;;;2.08;100.00;98394.88;5058016;28;20121;-57
2023/02/15 11:17:57;;;;;;;20.08;12.48;;;;;;;2.17;100.00;98398.31;5059596;28;20082;-58
2023/02/15 11:20:36;;;;;;;17.00;12.45;;;;;;;2.15;100.00;98395.84;5058989;28;20048;-57
2023/02/15 11:23:15;;;;;;;18.20;12.25;;;;;;;2.24;100.00;98399.31;5058610;28;20131;-58
2023/02/15 11:25:45;;;;;;;20.30;13.13;;;;;;;2.31;100.00;98394.94;5056275;28;20071;-57
2023/02/15 11:28:29;;;;;;;18.73;13.18;;;;;;;2.39;100.00;98391.41;5055530;28;20128;-59
2023/02/15 11:30:58;;;;;;;19.02;12.65;;;;;;;2.53;100.00;98395.19;5057802;28;20561;-57
2023/02/15 11:33:35;;;;;;;16.95;12.10;;;;;;;2.68;100.00;98391.75;5056344;28;20551;-56
2023/02/15 11:36:11;;;;;;;18.23;11.82;;;;;;;2.63;100.00;98394.97;5059693;28;20527;-58
2023/02/15 11:38:43;;;;;;;20.42;13.02;;;;;;;2.66;100.00;98389.28;5057432;28;20044;-57
2023/02/15 11:41:24;;;;;;;17.75;12.45;;;;;;;2.71;100.00;98389.59;5055898;28;20113;-55
2023/02/15 11:43:57;;;;;;;17.90;12.07;;;;;;;2.82;100.00;98392.84;5061830;28;20106;-59
2023/02/15 11:46:24;;;;;;;18.00;12.35;;;;;;;2.90;100.00;98386.59;5055332;28;20387;-55
2023/02/15 11:48:51;;;;;;;17.52;12.07;;;;;;;2.92;100.00;98380.09;5059412;28;20099;-59
2023/02/15 11:51:22;;;;;;;18.65;12.68;;;;;;;2.86;100.00;98383.47;5058257;28;20044;-58
2023/02/15 11:53:50;;;;;;;;;;;;;;;2.88;100.00;98385.97;5055452;28;20044;-58
2023/02/15 11:56:27;;;;;;;17.15;10.70;;;;;;;3.04;100.00;98385.03;5060808;28;19962;-57
2023/02/15 11:59:14;;;;;;;16.95;11.52;;;;;;;2.92;100.00;98381.94;5057038;28;20048;-59
2023/02/15 12:01:43;;;;;;;18.88;11.65;;;;;;;2.84;100.00;98380.16;5056207;28;20044;-57
2023/02/15 12:04:09;;;;;;;17.70;12.10;;;;;;;2.88;100.00;98381.47;5054910;28;20136;-58